Time;durP1;ratioP1;P1;durP2;ratioP2;P2;SDS_P1;SDS_P2;PMS_P1;PMS_P2;Temp;Humidity;BMP_temperature;BMP_pressure;BME280_temperature;BME280_humidity;BME280_pressure;Samples;Min_cycle;Max_cycle;Signal;HPM_P1;HPM_P2
2022/02/19 00:01:22;;;;;;;3.33;0.77;;;6.60;99.90;;;;;;5074003;28;20223;-71
2022/02/19 00:03:50;;;;;;;4.17;0.70;;;6.60;99.90;;;;;;5073273;28;20199;-72
2022/02/19 00:06:17;;;;;;;6.00;1.37;;;6.60;99.90;;;;;;5073334;28;20199;-71
2022/02/19 00:08:44;;;;;;;4.03;0.83;;;6.50;99.90;;;;;;5073445;28;20227;-72
2022/02/19 00:11:13;;;;;;;6.70;1.23;;;6.50;99.90;;;;;;5054713;28;20196;-70
2022/02/19 00:13:40;;;;;;;3.07;0.60;;;6.50;99.90;;;;;;5054322;28;20235;-71
2022/02/19 00:16:07;;;;;;;6.73;0.50;;;6.50;99.90;;;;;;5054092;28;20204;-71
2022/02/19 00:18:34;;;;;;;4.27;0.40;;;6.40;99.90;;;;;;5053935;28;20231;-70
2022/02/19 00:21:00;;;;;;;2.23;0.60;;;6.50;99.90;;;;;;5054082;28;20231;-72
2022/02/19 00:23:29;;;;;;;9.50;0.60;;;6.50;99.90;;;;;;5053954;28;20215;-71
2022/02/19 00:25:57;;;;;;;4.00;0.67;;;6.50;99.90;;;;;;5053449;28;20673;-70
2022/02/19 00:28:25;;;;;;;6.10;0.50;;;6.50;99.90;;;;;;5053874;28;20265;-70
2022/02/19 00:30:52;;;;;;;1.40;0.33;;;6.40;99.90;;;;;;5053858;28;20650;-71
2022/02/19 00:33:19;;;;;;;2.40;0.60;;;6.40;99.90;;;;;;5054047;28;20211;-71
2022/02/19 00:35:47;;;;;;;0.83;0.40;;;6.30;99.90;;;;;;5053800;28;20200;-70
2022/02/19 00:38:17;;;;;;;1.40;0.37;;;6.40;99.90;;;;;;5053927;28;20215;-70
2022/02/19 00:40:44;;;;;;;5.50;0.30;;;6.30;99.90;;;;;;5053160;28;20227;-70
2022/02/19 00:43:11;;;;;;;3.13;0.60;;;6.30;99.90;;;;;;5053017;28;20204;-71
2022/02/19 00:45:39;;;;;;;2.37;0.53;;;6.30;99.90;;;;;;5053628;28;20208;-71
2022/02/19 00:48:06;;;;;;;1.97;0.63;;;6.30;99.90;;;;;;5053481;28;20214;-70
2022/02/19 00:50:34;;;;;;;8.63;0.80;;;6.30;99.90;;;;;;5054087;28;20230;-73
2022/02/19 00:53:01;;;;;;;7.07;0.50;;;6.40;99.90;;;;;;5053528;28;20204;-70
2022/02/19 00:55:28;;;;;;;8.40;0.60;;;6.50;99.90;;;;;;5053668;28;20216;-70
2022/02/19 00:57:56;;;;;;;3.03;0.60;;;6.50;99.90;;;;;;5053564;28;20532;-70
2022/02/19 01:00:23;;;;;;;2.20;0.57;;;6.50;99.90;;;;;;5052928;28;20243;-71
2022/02/19 01:02:51;;;;;;;1.73;0.60;;;6.60;99.90;;;;;;5053468;28;20207;-70
2022/02/19 01:05:18;;;;;;;5.37;0.63;;;6.50;99.90;;;;;;5053236;28;20204;-71
2022/02/19 01:07:45;;;;;;;1.87;0.50;;;6.60;99.90;;;;;;5053454;28;20208;-72
2022/02/19 01:10:12;;;;;;;1.70;0.40;;;6.60;99.90;;;;;;5053671;28;20220;-70
2022/02/19 01:12:39;;;;;;;5.07;0.73;;;6.50;99.90;;;;;;5053429;28;20196;-70
2022/02/19 01:15:07;;;;;;;4.57;0.80;;;6.50;99.90;;;;;;5052850;28;20204;-70
2022/02/19 01:17:34;;;;;;;4.57;0.77;;;6.50;99.90;;;;;;5052994;28;20658;-70
2022/02/19 01:20:03;;;;;;;2.10;0.53;;;6.40;99.90;;;;;;5052882;28;20224;-70
2022/02/19 01:22:29;;;;;;;3.33;0.50;;;6.40;99.90;;;;;;5053444;28;20306;-71
2022/02/19 01:24:56;;;;;;;13.00;0.80;;;6.30;99.90;;;;;;5052584;28;20204;-70
2022/02/19 01:27:23;;;;;;;4.50;0.70;;;6.20;99.90;;;;;;5052308;28;20204;-70
2022/02/19 01:29:50;;;;;;;6.33;0.50;;;6.20;99.90;;;;;;5052490;28;20222;-71
2022/02/19 01:32:16;;;;;;;4.03;0.33;;;6.10;99.90;;;;;;5052937;28;20215;-70
2022/02/19 01:34:43;;;;;;;1.30;0.30;;;6.00;99.90;;;;;;5052366;28;20214;-70
2022/02/19 01:37:11;;;;;;;3.17;0.40;;;6.00;99.90;;;;;;5053011;28;20204;-70
2022/02/19 01:39:38;;;;;;;4.93;0.63;;;6.00;99.90;;;;;;5052544;28;20228;-70
2022/02/19 01:42:05;;;;;;;0.90;0.23;;;6.00;99.90;;;;;;5052339;28;20240;-70
2022/02/19 01:44:37;;;;;;;2.47;0.50;;;5.90;99.90;;;;;;5052074;28;20214;-70
2022/02/19 01:47:04;;;;;;;2.20;0.40;;;6.00;99.90;;;;;;5072220;28;20206;-70
2022/02/19 01:49:31;;;;;;;3.50;0.40;;;6.00;99.90;;;;;;5072512;28;20686;-70
2022/02/19 01:51:58;;;;;;;4.73;1.47;;;6.00;99.90;;;;;;5073104;28;20207;-70
2022/02/19 01:54:26;;;;;;;1.37;0.30;;;6.10;99.90;;;;;;5072842;28;20213;-71
2022/02/19 01:56:54;;;;;;;3.83;0.70;;;6.10;99.90;;;;;;5072359;28;20211;-70
2022/02/19 01:59:21;;;;;;;1.40;0.40;;;6.10;99.90;;;;;;5072819;28;20234;-70
2022/02/19 02:01:48;;;;;;;1.07;0.40;;;6.00;99.90;;;;;;5065442;28;20618;-70
2022/02/19 02:04:15;;;;;;;2.60;0.27;;;6.00;99.90;;;;;;5052477;28;20208;-70
2022/02/19 02:06:43;;;;;;;6.20;0.47;;;6.00;99.90;;;;;;5052735;28;20215;-70
2022/02/19 02:09:10;;;;;;;2.33;0.40;;;6.10;99.90;;;;;;5052370;28;20224;-70
2022/02/19 02:11:39;;;;;;;1.70;0.20;;;6.10;99.90;;;;;;5051540;28;20212;-70
2022/02/19 02:14:08;;;;;;;1.97;0.50;;;6.00;99.90;;;;;;5051538;28;20231;-70
2022/02/19 02:16:35;;;;;;;2.77;0.27;;;6.00;99.90;;;;;;5052026;28;20215;-70
2022/02/19 02:19:02;;;;;;;1.43;0.40;;;5.80;99.90;;;;;;5051891;28;20243;-70
2022/02/19 02:21:30;;;;;;;3.00;0.40;;;5.70;99.90;;;;;;5052142;28;20232;-70
2022/02/19 02:23:57;;;;;;;0.80;0.13;;;5.60;99.90;;;;;;5052489;28;20211;-70
2022/02/19 02:26:24;;;;;;;1.47;0.50;;;5.60;99.90;;;;;;5052588;28;20210;-70
2022/02/19 02:28:51;;;;;;;2.40;0.40;;;5.50;99.90;;;;;;5052428;28;20246;-70
2022/02/19 02:31:18;;;;;;;4.27;0.50;;;5.50;99.90;;;;;;5052170;28;20677;-70
2022/02/19 02:33:48;;;;;;;3.70;0.50;;;5.40;99.90;;;;;;5052279;28;20200;-70
2022/02/19 02:36:15;;;;;;;2.00;0.50;;;5.40;99.90;;;;;;5051826;28;20211;-70
2022/02/19 02:38:44;;;;;;;2.90;0.80;;;5.40;99.90;;;;;;5052432;28;20224;-70
2022/02/19 02:41:11;;;;;;;4.63;0.60;;;5.40;99.90;;;;;;5052226;28;20714;-70
2022/02/19 02:43:38;;;;;;;2.40;0.20;;;5.30;99.90;;;;;;5052486;28;20208;-70
2022/02/19 02:46:06;;;;;;;1.80;0.50;;;5.30;99.90;;;;;;5052556;28;20208;-70
2022/02/19 02:48:32;;;;;;;1.53;0.40;;;5.20;99.90;;;;;;5051647;28;20726;-70
2022/02/19 02:51:01;;;;;;;3.30;0.33;;;5.20;99.90;;;;;;5052196;28;20208;-70
2022/02/19 02:53:28;;;;;;;5.80;0.40;;;5.10;99.90;;;;;;5052446;28;20211;-69
2022/02/19 02:55:56;;;;;;;2.07;0.50;;;5.10;99.90;;;;;;5052286;28;20212;-70
2022/02/19 02:58:23;;;;;;;3.10;0.47;;;5.10;99.90;;;;;;5052051;28;20208;-69
2022/02/19 03:00:51;;;;;;;6.73;0.53;;;5.10;99.90;;;;;;5052148;28;20211;-70
2022/02/19 03:03:18;;;;;;;1.17;0.30;;;5.10;99.90;;;;;;5052321;28;20630;-70
2022/02/19 03:05:45;;;;;;;3.23;0.37;;;5.10;99.90;;;;;;5053835;28;20536;-70
2022/02/19 03:08:11;;;;;;;4.43;0.40;;;5.10;99.90;;;;;;5055564;28;20204;-71
2022/02/19 03:10:38;;;;;;;1.80;0.30;;;5.10;99.90;;;;;;5070349;23;20296;-72
2022/02/19 03:13:06;;;;;;;2.37;0.30;;;5.00;99.90;;;;;;5014199;28;20585;-75
2022/02/19 03:15:33;;;;;;;3.40;0.57;;;5.00;99.90;;;;;;5015811;28;20297;-77
2022/02/19 03:18:00;;;;;;;3.60;0.37;;;5.00;99.90;;;;;;5015763;28;20213;-76
2022/02/19 03:20:27;;;;;;;3.20;0.70;;;5.00;99.90;;;;;;5015809;28;20236;-78
2022/02/19 03:22:55;;;;;;;3.60;0.43;;;5.00;99.90;;;;;;5015845;28;20643;-76
2022/02/19 03:25:22;;;;;;;2.17;0.40;;;5.00;99.90;;;;;;5015921;28;20221;-74
2022/02/19 03:27:49;;;;;;;3.63;0.40;;;5.00;99.90;;;;;;5015914;28;20205;-75
2022/02/19 03:30:17;;;;;;;3.60;0.47;;;4.90;99.90;;;;;;5000744;28;20693;-76
2022/02/19 03:32:45;;;;;;;3.60;0.60;;;4.90;99.90;;;;;;4995699;28;20213;-76
2022/02/19 03:35:11;;;;;;;1.73;0.40;;;4.90;99.90;;;;;;4995677;28;20669;-77
2022/02/19 03:37:40;;;;;;;2.10;0.37;;;4.90;99.90;;;;;;4995871;28;20209;-77
2022/02/19 03:40:08;;;;;;;2.20;0.40;;;4.90;99.90;;;;;;4995344;28;20706;-76
2022/02/19 03:42:36;;;;;;;5.97;0.43;;;4.80;99.90;;;;;;4995598;28;20244;-77
2022/02/19 03:45:05;;;;;;;7.87;0.60;;;4.80;99.90;;;;;;4995526;28;20216;-76
2022/02/19 03:47:33;;;;;;;3.00;0.40;;;4.80;99.90;;;;;;4995579;28;20233;-75
2022/02/19 03:50:00;;;;;;;2.93;0.40;;;4.90;99.90;;;;;;4995714;28;20317;-77
2022/02/19 03:52:26;;;;;;;2.97;0.30;;;4.80;99.90;;;;;;4995775;28;20214;-77
2022/02/19 03:54:53;;;;;;;3.43;0.53;;;4.80;99.90;;;;;;4995680;28;20203;-77
2022/02/19 03:57:20;;;;;;;7.73;1.03;;;4.80;99.90;;;;;;4995504;28;20209;-78
2022/02/19 03:59:47;;;;;;;4.53;0.50;;;4.80;99.90;;;;;;4994805;28;20222;-77
2022/02/19 04:02:14;;;;;;;1.60;0.30;;;4.80;99.90;;;;;;5013688;28;20704;-77
2022/02/19 04:04:43;;;;;;;2.03;0.40;;;4.80;99.90;;;;;;5011890;28;20212;-75
2022/02/19 04:07:09;;;;;;;4.53;0.20;;;4.70;99.90;;;;;;5014867;28;20209;-78
2022/02/19 04:09:36;;;;;;;7.60;0.80;;;4.70;99.90;;;;;;5015319;28;20237;-78
2022/02/19 04:12:03;;;;;;;1.80;0.50;;;4.70;99.90;;;;;;5014592;28;20220;-77
2022/02/19 04:14:30;;;;;;;4.13;0.60;;;4.70;99.90;;;;;;5014800;28;20210;-77
2022/02/19 04:16:57;;;;;;;5.17;0.57;;;4.70;99.90;;;;;;5014708;28;20205;-74
2022/02/19 04:19:24;;;;;;;6.23;0.67;;;4.70;99.90;;;;;;5014633;28;20236;-78
2022/02/19 04:21:52;;;;;;;7.27;1.30;;;4.70;99.90;;;;;;5014587;28;20233;-74
2022/02/19 04:24:19;;;;;;;5.13;0.70;;;4.70;99.90;;;;;;5014479;28;20210;-77
2022/02/19 04:26:46;;;;;;;1.27;0.30;;;4.70;99.90;;;;;;5014686;28;20201;-77
2022/02/19 04:29:13;;;;;;;5.00;1.03;;;4.70;99.90;;;;;;5011846;28;20228;-77
2022/02/19 04:31:40;;;;;;;3.57;0.67;;;4.70;99.90;;;;;;5013686;28;20217;-74
2022/02/19 04:34:06;;;;;;;8.37;0.80;;;4.70;99.90;;;;;;5014355;28;20285;-74
2022/02/19 04:36:34;;;;;;;1.73;0.83;;;4.70;99.90;;;;;;5014352;28;20682;-74
2022/02/19 04:39:02;;;;;;;2.53;0.93;;;4.70;99.90;;;;;;5014583;28;20245;-74
2022/02/19 04:41:29;;;;;;;5.80;0.57;;;4.70;99.90;;;;;;5014150;28;20688;-76
2022/02/19 04:43:55;;;;;;;3.00;0.80;;;4.70;99.90;;;;;;5013873;28;20212;-74
2022/02/19 04:46:22;;;;;;;3.30;0.50;;;4.70;99.90;;;;;;5008300;28;20199;-78
2022/02/19 04:48:49;;;;;;;6.23;0.83;;;4.70;99.90;;;;;;4994322;28;20232;-74
2022/02/19 04:51:16;;;;;;;6.87;1.07;;;4.70;99.90;;;;;;4994243;28;20206;-78
2022/02/19 04:53:42;;;;;;;6.47;1.03;;;4.70;99.90;;;;;;4994552;28;20670;-78
2022/02/19 04:56:11;;;;;;;1.30;0.40;;;4.70;99.90;;;;;;4994134;28;20216;-75
2022/02/19 04:58:38;;;;;;;6.03;0.40;;;4.70;99.90;;;;;;4994502;28;20230;-77
2022/02/19 05:01:05;;;;;;;4.87;0.83;;;4.70;99.90;;;;;;4994069;28;20577;-75
2022/02/19 05:03:31;;;;;;;8.23;0.60;;;4.70;99.90;;;;;;4994027;28;20237;-74
2022/02/19 05:05:58;;;;;;;1.90;0.30;;;4.80;99.90;;;;;;4993903;28;20670;-75
2022/02/19 05:08:25;;;;;;;8.80;0.60;;;4.80;99.90;;;;;;4994297;28;20209;-78
2022/02/19 05:10:52;;;;;;;5.03;1.23;;;4.70;99.90;;;;;;4994121;28;20665;-77
2022/02/19 05:13:20;;;;;;;7.90;1.63;;;4.80;99.90;;;;;;4993490;28;20206;-75
2022/02/19 05:15:47;;;;;;;8.93;0.50;;;4.70;99.90;;;;;;4994014;28;20666;-75
2022/02/19 05:18:15;;;;;;;9.83;0.70;;;4.70;99.90;;;;;;4993871;28;20257;-76
2022/02/19 05:20:43;;;;;;;5.03;0.53;;;4.70;99.90;;;;;;4993726;28;20194;-77
2022/02/19 05:23:10;;;;;;;6.80;0.77;;;4.70;99.90;;;;;;4993680;28;20237;-76
2022/02/19 05:25:40;;;;;;;3.77;0.50;;;4.70;99.90;;;;;;4993611;28;20206;-74
2022/02/19 05:28:08;;;;;;;2.13;0.63;;;4.70;99.90;;;;;;4993204;28;20209;-78
2022/02/19 05:30:37;;;;;;;2.17;0.90;;;4.70;99.90;;;;;;4993799;28;20238;-76
2022/02/19 05:33:04;;;;;;;2.93;0.70;;;4.70;99.90;;;;;;4993259;28;20211;-76
2022/02/19 05:35:31;;;;;;;5.63;0.43;;;4.70;99.90;;;;;;4994621;28;20213;-75
2022/02/19 05:37:58;;;;;;;3.27;0.50;;;4.70;99.90;;;;;;4993473;28;20205;-77
2022/02/19 05:40:25;;;;;;;7.67;1.00;;;4.70;99.90;;;;;;4993009;28;20246;-76
2022/02/19 05:42:51;;;;;;;10.13;0.77;;;4.70;99.90;;;;;;4993889;28;20234;-77
2022/02/19 05:45:18;;;;;;;1.93;0.73;;;4.60;99.90;;;;;;4993658;28;20636;-75
2022/02/19 05:47:47;;;;;;;2.87;0.80;;;4.70;99.90;;;;;;4993710;28;20207;-75
2022/02/19 05:50:13;;;;;;;8.87;0.67;;;4.70;99.90;;;;;;4993437;28;20222;-74
2022/02/19 05:52:40;;;;;;;4.87;0.60;;;4.70;99.90;;;;;;4993474;28;20214;-75
2022/02/19 05:55:08;;;;;;;5.13;0.93;;;4.70;99.90;;;;;;4993108;28;20213;-75
2022/02/19 05:57:41;;;;;;;4.90;0.80;;;4.60;99.90;;;;;;4993014;28;20240;-78
2022/02/19 06:00:09;;;;;;;10.87;0.73;;;4.70;99.90;;;;;;4993385;28;20281;-79
2022/02/19 06:02:36;;;;;;;6.03;0.80;;;4.70;99.90;;;;;;4993782;28;20296;-79
2022/02/19 06:05:06;;;;;;;4.53;1.40;;;4.70;99.90;;;;;;4993474;28;20213;-78
2022/02/19 06:07:32;;;;;;;1.83;0.73;;;4.70;99.90;;;;;;4993393;28;20210;-74
2022/02/19 06:09:59;;;;;;;5.83;0.77;;;4.60;99.90;;;;;;4993744;28;20226;-75
2022/02/19 06:12:26;;;;;;;4.10;1.03;;;4.50;99.90;;;;;;4993113;28;20218;-79
2022/02/19 06:14:53;;;;;;;5.37;0.90;;;4.50;99.90;;;;;;4993372;28;20210;-75
2022/02/19 06:17:19;;;;;;;7.63;0.87;;;4.50;99.90;;;;;;4993293;28;20673;-75
2022/02/19 06:19:46;;;;;;;5.53;0.60;;;4.40;99.90;;;;;;4993370;28;20231;-78
2022/02/19 06:22:14;;;;;;;3.30;0.60;;;4.50;99.90;;;;;;4993497;28;20233;-78
2022/02/19 06:24:41;;;;;;;5.00;0.63;;;4.40;99.90;;;;;;4993418;28;20221;-77
2022/02/19 06:27:08;;;;;;;3.90;0.60;;;4.40;99.90;;;;;;4993240;28;20202;-78
2022/02/19 06:29:35;;;;;;;3.57;0.43;;;4.40;99.90;;;;;;4993113;28;20230;-74
2022/02/19 06:32:02;;;;;;;4.80;0.70;;;4.40;99.90;;;;;;4992970;28;20253;-77
2022/02/19 06:34:29;;;;;;;8.97;0.80;;;4.40;99.90;;;;;;4995515;28;20268;-74
2022/02/19 06:36:56;;;;;;;4.73;0.50;;;4.40;99.90;;;;;;4993836;28;20202;-76
2022/02/19 06:39:24;;;;;;;7.27;0.63;;;4.40;99.90;;;;;;4992802;28;20230;-76
2022/02/19 06:41:51;;;;;;;2.70;0.73;;;4.40;99.90;;;;;;4997064;28;20213;-76
2022/02/19 06:44:18;;;;;;;1.47;0.50;;;4.30;99.90;;;;;;4996929;28;20210;-76
2022/02/19 06:46:45;;;;;;;5.90;0.50;;;4.30;99.90;;;;;;4996806;28;20209;-77
2022/02/19 06:49:11;;;;;;;4.40;1.00;;;4.30;99.90;;;;;;4996249;28;20234;-77
2022/02/19 06:51:38;;;;;;;7.30;0.90;;;4.40;99.90;;;;;;4997060;28;20214;-78
2022/02/19 06:54:05;;;;;;;7.03;0.90;;;4.40;99.90;;;;;;4997089;28;20577;-78
2022/02/19 06:56:33;;;;;;;3.77;0.60;;;4.40;99.90;;;;;;4996941;28;20213;-76
2022/02/19 06:59:00;;;;;;;4.33;0.77;;;4.50;99.90;;;;;;4996243;28;20233;-78
2022/02/19 07:01:27;;;;;;;2.60;0.70;;;4.40;99.90;;;;;;4996276;28;20202;-78
2022/02/19 07:03:54;;;;;;;7.50;0.77;;;4.50;99.90;;;;;;5013379;28;20249;-77
2022/02/19 07:06:21;;;;;;;8.50;1.33;;;4.50;99.90;;;;;;5015964;28;20229;-77
2022/02/19 07:08:48;;;;;;;5.50;0.70;;;4.60;99.90;;;;;;5015590;28;20313;-77
2022/02/19 07:11:15;;;;;;;6.60;0.80;;;4.60;99.90;;;;;;5015620;28;20239;-77
2022/02/19 07:13:43;;;;;;;2.97;0.50;;;4.60;99.90;;;;;;5015383;28;20210;-78
2022/02/19 07:16:10;;;;;;;17.20;0.83;;;4.80;99.90;;;;;;5015421;28;20213;-78
2022/02/19 07:18:37;;;;;;;7.63;0.60;;;4.90;99.90;;;;;;5014524;28;20230;-75
2022/02/19 07:21:03;;;;;;;8.37;1.03;;;4.90;99.90;;;;;;5014900;28;20212;-76
2022/02/19 07:23:30;;;;;;;1.17;0.67;;;5.00;99.90;;;;;;5014774;28;20236;-78
2022/02/19 07:25:57;;;;;;;6.87;0.60;;;5.00;99.90;;;;;;5013567;28;20217;-76
2022/02/19 07:28:24;;;;;;;1.80;0.70;;;5.00;99.90;;;;;;4995400;28;20214;-78
2022/02/19 07:30:52;;;;;;;5.90;0.73;;;5.20;99.90;;;;;;4995855;28;20211;-76
2022/02/19 07:33:19;;;;;;;7.07;0.90;;;5.30;99.90;;;;;;4995677;28;20207;-77
2022/02/19 07:35:46;;;;;;;8.40;1.23;;;5.40;99.90;;;;;;4995689;28;20210;-76
2022/02/19 07:38:13;;;;;;;2.03;0.60;;;5.40;99.90;;;;;;5013070;28;20198;-78
2022/02/19 07:40:39;;;;;;;7.00;1.40;;;5.60;99.90;;;;;;5015193;28;20209;-75
2022/02/19 07:43:06;;;;;;;1.47;0.40;;;5.60;99.90;;;;;;5000986;28;20238;-77
2022/02/19 07:45:33;;;;;;;6.67;1.17;;;5.60;99.90;;;;;;4995198;28;20203;-76
2022/02/19 07:48:01;;;;;;;3.53;0.60;;;5.60;99.90;;;;;;4995171;28;20207;-78
2022/02/19 07:58:41;;;;;;;4.10;0.60;;;6.10;99.90;;;;;;5011777;28;20232;-78
2022/02/19 08:01:10;;;;;;;4.90;0.70;;;6.40;99.90;;;;;;5014211;28;20198;-75
2022/02/19 08:03:38;;;;;;;7.03;1.00;;;6.50;99.90;;;;;;5014682;28;20570;-77
2022/02/19 08:06:06;;;;;;;3.30;0.50;;;6.60;99.90;;;;;;5014815;28;20206;-74
2022/02/19 08:08:33;;;;;;;3.77;0.40;;;7.00;99.90;;;;;;5013997;28;20232;-77
2022/02/19 08:11:00;;;;;;;6.10;1.00;;;7.30;99.90;;;;;;5013962;28;20264;-75
2022/02/19 08:13:27;;;;;;;4.07;0.60;;;7.40;99.90;;;;;;5014807;28;20205;-78
2022/02/19 08:15:55;;;;;;;4.60;0.50;;;7.70;99.90;;;;;;5014232;28;20194;-75
2022/02/19 08:18:23;;;;;;;3.30;0.83;;;7.70;99.90;;;;;;5014144;28;20217;-77
2022/02/19 08:20:52;;;;;;;1.03;0.30;;;7.70;99.90;;;;;;5014312;28;20217;-77
2022/02/19 08:23:22;;;;;;;2.03;0.67;;;7.70;99.90;;;;;;5014736;28;20243;-75
2022/02/19 08:25:49;;;;;;;6.27;1.17;;;7.90;99.90;;;;;;5014342;28;20296;-77
2022/02/19 08:28:16;;;;;;;7.10;0.93;;;7.90;99.90;;;;;;5008705;28;20206;-78
2022/02/19 08:30:45;;;;;;;3.83;0.50;;;8.00;99.90;;;;;;4994820;28;20217;-74
2022/02/19 08:33:12;;;;;;;6.13;0.33;;;8.10;99.90;;;;;;4994109;28;20229;-74
2022/02/19 08:35:41;;;;;;;2.33;0.40;;;8.10;99.90;;;;;;5003242;28;20689;-77
2022/02/19 08:38:10;;;;;;;3.97;0.50;;;8.40;99.90;;;;;;5012409;28;20214;-74
2022/02/19 08:40:37;;;;;;;3.97;0.77;;;8.50;99.90;;;;;;5011811;28;20224;-77
2022/02/19 08:43:05;;;;;;;4.93;0.90;;;8.50;99.90;;;;;;5013639;28;20243;-77
2022/02/19 08:45:31;;;;;;;6.63;0.60;;;8.90;99.90;;;;;;5013998;28;20248;-77
2022/02/19 08:48:01;;;;;;;1.80;0.60;;;8.80;99.90;;;;;;5005188;28;20198;-75
2022/02/19 08:50:29;;;;;;;2.63;0.30;;;8.60;99.90;;;;;;5013481;28;20229;-73
2022/02/19 08:52:56;;;;;;;4.83;0.47;;;8.40;99.90;;;;;;5006843;28;20206;-74
2022/02/19 08:55:25;;;;;;;0.80;0.27;;;8.50;99.90;;;;;;4994500;28;20252;-74
2022/02/19 08:57:52;;;;;;;3.00;0.80;;;8.60;99.90;;;;;;4994290;28;20217;-75
2022/02/19 09:00:19;;;;;;;1.93;0.50;;;8.60;99.90;;;;;;4994084;28;20226;-75
2022/02/19 09:02:46;;;;;;;2.60;0.70;;;8.60;99.90;;;;;;4993011;28;20514;-73
2022/02/19 09:05:14;;;;;;;1.63;0.60;;;8.60;99.90;;;;;;4994318;28;20206;-77
2022/02/19 09:07:41;;;;;;;3.53;0.53;;;8.60;99.90;;;;;;4994139;28;20216;-78
2022/02/19 09:10:11;;;;;;;2.73;0.67;;;8.40;99.90;;;;;;4994174;28;20226;-76
2022/02/19 09:12:46;;;;;;;1.83;0.40;;;8.30;99.90;;;;;;5087024;23;20222;-70
2022/02/19 09:15:13;;;;;;;4.73;1.17;;;8.40;99.90;;;;;;5093711;28;20206;-72
2022/02/19 09:17:40;;;;;;;1.67;0.40;;;8.30;99.90;;;;;;5094006;28;20210;-71
2022/02/19 09:20:09;;;;;;;5.67;0.73;;;8.20;99.90;;;;;;5087376;28;20247;-70
2022/02/19 09:22:37;;;;;;;8.73;0.60;;;8.20;99.90;;;;;;5091135;28;20194;-70
2022/02/19 09:25:05;;;;;;;1.60;0.60;;;7.80;99.90;;;;;;5093359;28;20207;-71
2022/02/19 09:27:31;;;;;;;2.37;0.50;;;7.70;99.90;;;;;;5093123;28;20212;-70
2022/02/19 09:30:00;;;;;;;8.10;0.97;;;7.50;99.90;;;;;;5093706;28;20218;-70
2022/02/19 09:32:26;;;;;;;4.93;0.53;;;7.40;99.90;;;;;;5092187;28;20209;-71
2022/02/19 09:34:53;;;;;;;4.57;1.60;;;7.30;99.90;;;;;;5091091;28;20207;-70
2022/02/19 09:37:21;;;;;;;6.83;0.90;;;8.10;99.90;;;;;;5072719;28;20214;-70
2022/02/19 09:39:47;;;;;;;2.07;0.70;;;8.40;99.90;;;;;;5073150;28;20227;-69
2022/02/19 09:42:14;;;;;;;8.23;0.60;;;8.90;99.90;;;;;;5073435;28;20210;-70
2022/02/19 09:44:41;;;;;;;2.27;0.60;;;9.20;99.90;;;;;;5072911;28;20690;-70
2022/02/19 09:47:11;;;;;;;1.50;0.40;;;9.30;99.90;;;;;;5072763;28;20658;-70
2022/02/19 09:49:39;;;;;;;4.93;0.47;;;9.80;99.90;;;;;;5071770;28;20219;-73
2022/02/19 09:52:07;;;;;;;5.80;1.23;;;10.20;99.90;;;;;;5072082;28;20658;-72
2022/02/19 09:54:34;;;;;;;6.23;0.80;;;10.60;99.90;;;;;;5072286;28;20204;-70
2022/02/19 09:57:01;;;;;;;6.27;1.63;;;10.40;99.90;;;;;;5079177;28;20230;-70
2022/02/19 09:59:27;;;;;;;5.20;0.50;;;10.30;99.90;;;;;;5092725;28;20225;-70
2022/02/19 10:02:03;;;;;;;3.23;0.47;;;10.00;99.90;;;;;;5091920;28;20213;-70
2022/02/19 10:04:32;;;;;;;5.53;1.07;;;9.90;99.90;;;;;;5089800;28;20267;-70
2022/02/19 10:07:00;;;;;;;2.17;0.50;;;9.80;99.90;;;;;;5093325;28;20203;-70
2022/02/19 10:09:28;;;;;;;2.43;0.50;;;9.60;99.90;;;;;;5089178;28;20218;-70
2022/02/19 10:11:55;;;;;;;5.10;0.70;;;10.00;99.90;;;;;;5092784;28;20214;-71
2022/02/19 10:14:23;;;;;;;4.37;0.80;;;10.20;99.90;;;;;;5088334;28;20653;-70
2022/02/19 10:17:24;;;;;;;3.23;0.67;;;10.20;99.90;;;;;;5076328;28;20207;-70
2022/02/19 10:19:54;;;;;;;4.23;0.60;;;10.40;99.90;;;;;;4994743;28;20341;-70
2022/02/19 10:22:24;;;;;;;4.03;0.80;;;10.10;99.90;;;;;;4995176;28;20202;-70
2022/02/19 10:24:54;;;;;;;1.30;0.50;;;9.70;99.90;;;;;;5034308;28;20234;-70
2022/02/19 10:27:21;;;;;;;5.33;0.70;;;9.60;99.90;;;;;;5076730;28;20219;-70
2022/02/19 10:29:50;;;;;;;1.83;0.50;;;9.60;99.90;;;;;;5076244;28;20227;-71
2022/02/19 10:32:16;;;;;;;3.03;0.67;;;9.50;99.90;;;;;;5076452;28;20209;-70
2022/02/19 10:35:12;;;;;;;4.83;0.57;;;9.60;99.90;;;;;;5076201;28;20207;-70
2022/02/19 10:37:43;;;;;;;3.87;0.40;;;10.00;99.90;;;;;;5029246;28;20199;-70
2022/02/19 10:40:27;;;;;;;4.03;0.50;;;10.80;99.90;;;;;;5076496;28;20223;-70
2022/02/19 10:42:57;;;;;;;2.60;0.63;;;10.90;99.90;;;;;;5076361;28;20203;-70
2022/02/19 10:45:24;;;;;;;6.97;0.80;;;10.40;99.90;;;;;;5076533;28;20645;-71
2022/02/19 10:47:53;;;;;;;1.37;0.70;;;10.40;99.90;;;;;;5075875;28;20659;-70
2022/02/19 10:50:22;;;;;;;1.53;0.70;;;10.40;99.90;;;;;;5078653;28;20226;-70
2022/02/19 10:52:54;;;;;;;5.03;0.50;;;10.30;99.90;;;;;;5091300;28;20203;-70
2022/02/19 10:55:23;;;;;;;4.10;0.70;;;10.00;99.90;;;;;;5075728;28;20211;-68
2022/02/19 10:57:55;;;;;;;1.93;1.07;;;10.70;99.90;;;;;;5075899;28;20249;-69
2022/02/19 11:00:24;;;;;;;2.20;0.50;;;10.90;99.90;;;;;;5076378;28;20690;-70
2022/02/19 11:02:52;;;;;;;1.60;0.60;;;10.50;99.90;;;;;;5089835;28;20285;-68
2022/02/19 11:05:21;;;;;;;1.70;0.67;;;10.60;99.90;;;;;;5095850;28;20237;-69
2022/02/19 11:07:50;;;;;;;1.53;0.50;;;10.50;99.90;;;;;;5095932;28;20209;-69
2022/02/19 11:10:19;;;;;;;3.27;1.17;;;10.60;99.90;;;;;;5090002;28;20222;-68
2022/02/19 11:12:46;;;;;;;3.53;1.00;;;10.40;99.90;;;;;;5084940;28;20231;-68
2022/02/19 11:15:14;;;;;;;5.03;1.47;;;10.30;99.90;;;;;;5086288;28;20561;-69
2022/02/19 11:17:41;;;;;;;2.20;0.67;;;10.60;99.90;;;;;;5095806;28;20207;-68
2022/02/19 11:20:10;;;;;;;2.97;1.20;;;10.20;99.90;;;;;;5093807;28;20226;-68
2022/02/19 11:22:40;;;;;;;2.90;0.60;;;9.30;99.90;;;;;;5095653;28;20242;-68
2022/02/19 11:25:09;;;;;;;0.87;0.50;;;9.10;99.90;;;;;;5094888;28;20576;-69
2022/02/19 11:27:39;;;;;;;3.37;0.77;;;9.00;99.90;;;;;;5094786;28;20214;-69
2022/02/19 11:30:09;;;;;;;1.80;0.57;;;8.90;99.90;;;;;;5075339;28;20276;-68
2022/02/19 11:32:38;;;;;;;3.53;1.23;;;8.70;99.90;;;;;;5074461;28;20203;-69
2022/02/19 11:35:06;;;;;;;3.60;0.70;;;8.80;99.90;;;;;;5074904;28;20203;-69
2022/02/19 11:37:40;;;;;;;3.60;0.60;;;8.60;99.90;;;;;;5078533;28;20220;-69
2022/02/19 11:40:10;;;;;;;1.53;0.30;;;8.60;99.90;;;;;;5094534;28;20230;-69
2022/02/19 11:42:43;;;;;;;5.77;0.80;;;8.60;99.90;;;;;;5095260;28;20203;-69
2022/02/19 11:45:26;;;;;;;7.70;1.13;;;8.40;99.90;;;;;;5094920;28;20237;-69
2022/02/19 11:47:55;;;;;;;2.90;0.80;;;8.60;99.90;;;;;;5078273;28;20203;-69
2022/02/19 11:50:25;;;;;;;2.10;0.63;;;8.80;99.90;;;;;;5074477;28;20559;-69
2022/02/19 11:53:26;;;;;;;3.93;0.97;;;8.80;99.90;;;;;;5074520;28;20612;-70
2022/02/19 11:55:54;;;;;;;2.60;0.73;;;8.80;99.90;;;;;;4996487;28;20214;-69
2022/02/19 11:58:24;;;;;;;7.03;0.70;;;8.90;99.90;;;;;;5077832;28;20234;-70
2022/02/19 12:00:54;;;;;;;5.30;0.77;;;8.90;99.90;;;;;;5094576;28;20561;-72
2022/02/19 12:03:24;;;;;;;3.83;0.67;;;8.90;99.90;;;;;;5094151;28;20202;-72
2022/02/19 12:06:08;;;;;;;9.30;0.70;;;8.90;99.90;;;;;;5093907;28;20230;-69
2022/02/19 12:09:17;;;;;;;4.40;0.50;;;9.00;99.90;;;;;;5093679;28;20225;-69
2022/02/19 12:12:06;;;;;;;2.60;0.70;;;8.90;99.90;;;;;;5073074;28;20217;-70
2022/02/19 12:15:01;;;;;;;1.40;0.50;;;9.00;99.90;;;;;;5082772;28;20207;-69
2022/02/19 12:17:43;;;;;;;1.83;0.60;;;9.00;99.90;;;;;;5076865;28;20593;-72
2022/02/19 12:20:11;;;;;;;8.20;0.50;;;9.00;99.90;;;;;;5074154;28;20215;-72
2022/02/19 12:22:41;;;;;;;4.47;0.60;;;9.00;99.90;;;;;;5074241;28;20200;-69
2022/02/19 12:25:09;;;;;;;4.87;0.80;;;9.10;99.90;;;;;;5084456;28;20253;-70
2022/02/19 12:27:39;;;;;;;5.43;1.30;;;9.20;99.90;;;;;;5092604;28;20649;-72
2022/02/19 12:30:24;;;;;;;3.43;0.70;;;9.30;99.90;;;;;;5091907;28;20227;-69
2022/02/19 12:32:52;;;;;;;4.07;0.60;;;9.30;99.90;;;;;;5073819;28;20207;-69
2022/02/19 12:35:20;;;;;;;3.23;0.80;;;9.20;99.90;;;;;;5073673;28;20658;-69
2022/02/19 12:37:47;;;;;;;3.70;0.67;;;9.10;99.90;;;;;;5073378;28;20209;-70
2022/02/19 12:40:19;;;;;;;1.17;0.70;;;9.20;99.90;;;;;;5088814;28;20234;-69
2022/02/19 12:42:51;;;;;;;0.63;0.40;;;9.10;99.90;;;;;;5087489;28;20199;-69
2022/02/19 12:45:19;;;;;;;4.30;0.97;;;9.10;99.90;;;;;;5091724;28;20226;-69
2022/02/19 12:47:47;;;;;;;3.57;0.43;;;9.00;99.90;;;;;;5092272;28;20228;-69
2022/02/19 12:50:15;;;;;;;4.77;0.93;;;8.90;99.90;;;;;;5092764;28;20663;-69
2022/02/19 12:52:43;;;;;;;2.27;0.87;;;8.90;99.90;;;;;;5091402;28;20677;-69
2022/02/19 12:55:16;;;;;;;2.80;0.50;;;9.10;99.90;;;;;;5092907;28;20202;-69
2022/02/19 12:57:43;;;;;;;4.63;0.70;;;9.40;99.90;;;;;;5085273;28;20249;-69
2022/02/19 13:00:13;;;;;;;2.17;0.80;;;9.60;99.90;;;;;;5081499;28;20215;-69
2022/02/19 13:02:40;;;;;;;2.37;0.50;;;9.90;99.90;;;;;;5085058;28;20763;-69
2022/02/19 13:05:09;;;;;;;2.77;0.57;;;10.00;99.90;;;;;;5093014;28;20313;-69
2022/02/19 13:07:37;;;;;;;1.17;0.50;;;9.90;99.90;;;;;;5093290;28;20205;-69
2022/02/19 13:10:06;;;;;;;5.13;0.50;;;9.50;99.90;;;;;;5092820;28;20222;-69